Alligator Point, FL

11:06 PM EDT on August 27, 2014 (GMT -0400)
ABYC at Shell Point | Change Station
CLOSE
Current Station
Personal Weather Station
Location: Wakulla County, FL
Elevation: 13 ft
Nearby Weather Stations

Elev 13 ft 30.07 °N, 84.29 °W | Updated 38 seconds ago

Clear
Clear
77.3 °F
Feels Like 79 °F
N
0.0
Wind Variable Wind from ESE
Gusts 0.0 mph

Today
High -- | Low -- °F
--% Chance of Precip.
Yesterday
High -- | Low -- °F
Precip. -- in
7:11 AM 8:05 PM
Waxing Crescent, 6% visible
Pressure 30.00 in
Visibility 10.0 miles
Clouds Few 7500 ft
Heat Index 79 °F
Dew Point 71 °F
Humidity 82%
Rainfall 0.00 in
Snow Depth Not available.
UV 0 out of 12
Pollen 7.50 out of 12
Air Quality Not available.
Flu Activity Not available.
METAR KTLH 280253Z 00000KT 10SM FEW075 25/18 A3001 RMK AO2 SLP159 LAST AUGMENTED OBS T02500183 51015

More Conditions Fewer Conditions

Pressure 30.00 in
Visibility 10.0 miles
Clouds Few 7500 ft
Heat Index 79 °F
Dew Point 71 °F
Humidity 82%
Rainfall 0.00 in
Snow Depth Not available.
UV 0 out of 12
Pollen 7.50 out of 12
Air Quality Not available.
Flu Activity Not available.
METAR KTLH 280253Z 00000KT 10SM FEW075 25/18 A3001 RMK AO2 SLP159 LAST AUGMENTED OBS T02500183 51015

More Conditions Fewer Conditions

10-Day Weather Forecast

Almanac

Astronomy

Aug. 27, 2014 Rise Set
Actual Time 7:11 AM EDT 8:05 PM EDT
Civil Twilight 6:47 AM EDT 8:30 PM EDT
Nautical Twilight 6:18 AM EDT 8:59 PM EDT
Astronomical Twilight 5:48 AM EDT 9:28 PM EDT
Moon 8:55 AM EDT (8/27) 9:10 PM EDT (8/27)
Length of Visible Light 13h 43m
Length of Day
12h 54m
Tomorrow will be 1m 41s shorter.
Waxing Crescent, 6% of the Moon is Illuminated
Today
Waxing Crescent
Sep 2
First Quarter
Sep 8
Full
Sep 15
Last Quarter
Sep 24
New

Today's Extremes

State Highs State Lows

Community

WunderPhotos

Upload Photos

1,747,888 photos uploaded!

Nearby

Snow Depth

Station Depth Elevation
No new snow has been reported.

Earthquake Activity

City Distance Mag. Time & Date
No recent earthquake activity has been reported nearby.
Minimum magnitude displayed is 2.5.

Coastal Water Temperatures

Place Temperature
Apalachicola, FL 86.0 °F
Panama City, FL 86.0 °F

Nearby Weather Stations